createdAt,value
2023-03-03T00:00:27.764Z,33.92
2023-03-03T00:02:58.193Z,32.78
2023-03-03T00:05:25.594Z,34.17
2023-03-03T00:07:52.879Z,33.35
2023-03-03T00:10:20.216Z,32.85
2023-03-03T00:12:49.882Z,34.70
2023-03-03T00:15:19.582Z,33.28
2023-03-03T00:17:47.043Z,34.00
2023-03-03T00:20:35.673Z,31.98
2023-03-03T00:23:27.441Z,33.95
2023-03-03T00:25:54.980Z,33.45
2023-03-03T00:28:25.994Z,33.05
2023-03-03T00:30:55.234Z,33.05
2023-03-03T00:33:34.738Z,32.90
2023-03-03T00:36:29.031Z,33.00
2023-03-03T00:39:00.650Z,31.90
2023-03-03T00:41:28.496Z,33.15
2023-03-03T00:43:55.929Z,33.75
2023-03-03T00:46:24.298Z,33.85
2023-03-03T00:48:51.862Z,32.75
2023-03-03T00:51:34.549Z,32.33
2023-03-03T00:54:02.046Z,33.10
2023-03-03T00:56:29.389Z,32.95
2023-03-03T00:58:57.558Z,33.55
2023-03-03T01:01:27.106Z,32.45
2023-03-03T01:03:55.090Z,33.78
2023-03-03T01:06:22.631Z,33.47
2023-03-03T01:08:50.580Z,33.15
2023-03-03T01:11:22.708Z,33.10
2023-03-03T01:13:50.912Z,32.63
2023-03-03T01:16:19.227Z,32.47
2023-03-03T01:18:46.611Z,32.95
2023-03-03T01:21:13.976Z,32.63
2023-03-03T01:23:41.466Z,33.72
2023-03-03T01:26:09.080Z,32.22
2023-03-03T01:28:36.573Z,32.80
2023-03-03T01:31:05.353Z,33.17
2023-03-03T01:33:34.561Z,33.13
2023-03-03T01:36:02.666Z,33.40
2023-03-03T01:38:30.563Z,33.55
2023-03-03T01:40:59.759Z,32.63
2023-03-03T01:43:31.788Z,33.17
2023-03-03T01:45:58.990Z,32.65
2023-03-03T01:48:37.416Z,31.80
2023-03-03T01:51:08.017Z,33.28
2023-03-03T01:53:51.645Z,33.80
2023-03-03T01:56:19.243Z,32.95
2023-03-03T01:58:50.216Z,34.00
2023-03-03T02:01:22.700Z,33.05
2023-03-03T02:03:50.908Z,33.10
2023-03-03T02:06:20.911Z,33.22
2023-03-03T02:11:37.099Z,32.42
2023-03-03T02:14:04.482Z,34.03
2023-03-03T02:16:32.032Z,33.53
2023-03-03T02:19:00.356Z,32.97
2023-03-03T02:21:28.006Z,35.33
2023-03-03T02:23:59.888Z,34.28
2023-03-03T02:26:29.476Z,32.75
2023-03-03T02:29:01.946Z,33.25
2023-03-03T02:31:33.493Z,33.42
2023-03-03T02:34:00.889Z,34.55
2023-03-03T02:36:32.627Z,34.05
2023-03-03T02:39:27.149Z,35.85
2023-03-03T02:42:15.186Z,35.30
2023-03-03T02:44:48.737Z,34.78
2023-03-03T02:47:16.489Z,34.97
2023-03-03T02:49:45.143Z,33.13
2023-03-03T02:52:14.828Z,34.70
2023-03-03T02:54:45.380Z,34.55
2023-03-03T02:57:12.790Z,34.72
2023-03-03T02:59:40.284Z,34.00
2023-03-03T03:02:12.499Z,34.30
2023-03-03T03:04:39.896Z,36.50
2023-03-03T03:07:07.835Z,39.70
2023-03-03T03:12:05.424Z,34.35
2023-03-03T03:14:35.574Z,35.45
2023-03-03T03:17:03.119Z,36.20
2023-03-03T03:19:30.755Z,36.35
2023-03-03T03:22:01.638Z,35.97
2023-03-03T03:24:30.360Z,35.05
2023-03-03T03:27:02.919Z,36.33
2023-03-03T03:29:31.255Z,35.55
2023-03-03T03:31:58.780Z,36.15
2023-03-03T03:34:26.702Z,34.33
2023-03-03T03:36:55.243Z,36.28
2023-03-03T03:39:24.412Z,35.10
2023-03-03T03:41:53.437Z,35.10
2023-03-03T03:44:21.963Z,36.10
2023-03-03T03:46:49.228Z,34.30
2023-03-03T03:49:16.734Z,34.45
2023-03-03T03:51:44.275Z,35.50
2023-03-03T03:54:15.327Z,34.92
2023-03-03T03:56:43.676Z,35.35
2023-03-03T03:59:11.418Z,36.53
2023-03-03T04:01:39.424Z,34.60
2023-03-03T04:04:06.832Z,35.67
2023-03-03T04:06:35.029Z,36.33
2023-03-03T04:09:02.881Z,35.63
2023-03-03T04:11:31.616Z,36.22
2023-03-03T04:13:59.480Z,36.10
2023-03-03T04:16:27.751Z,36.45
2023-03-03T04:18:55.346Z,36.50
2023-03-03T04:21:22.978Z,36.55
2023-03-03T04:23:53.280Z,36.42
2023-03-03T04:26:20.763Z,36.83
2023-03-03T04:28:49.317Z,35.95
2023-03-03T04:31:17.093Z,36.60
2023-03-03T04:33:44.511Z,37.08
2023-03-03T04:36:12.189Z,35.40
2023-03-03T04:38:39.602Z,36.30
2023-03-03T04:41:07.040Z,36.92
2023-03-03T04:43:38.286Z,36.35
2023-03-03T04:46:06.298Z,37.83
2023-03-03T04:48:34.740Z,38.33
2023-03-03T04:51:02.121Z,38.03
2023-03-03T04:53:31.749Z,36.90
2023-03-03T04:55:59.164Z,37.65
2023-03-03T04:58:26.870Z,35.95
2023-03-03T05:00:57.140Z,37.97
2023-03-03T05:03:27.194Z,37.22
2023-03-03T05:05:54.646Z,37.50
2023-03-03T05:08:22.052Z,37.35
2023-03-03T05:10:53.792Z,37.97
2023-03-03T05:13:21.501Z,36.17
2023-03-03T05:15:55.481Z,39.15
2023-03-03T05:18:24.508Z,36.80
2023-03-03T05:20:52.555Z,38.83
2023-03-03T05:23:21.204Z,37.13
2023-03-03T05:25:50.057Z,37.53
2023-03-03T05:28:17.945Z,36.40
2023-03-03T05:30:45.838Z,37.30
2023-03-03T05:33:15.188Z,36.17
2023-03-03T05:35:43.208Z,37.35
2023-03-03T05:38:11.017Z,37.65
2023-03-03T05:40:38.940Z,38.40
2023-03-03T05:43:07.240Z,37.03
2023-03-03T05:45:35.484Z,37.92
2023-03-03T05:48:04.117Z,36.17
2023-03-03T05:50:32.224Z,37.83
2023-03-03T05:53:00.838Z,36.13
2023-03-03T05:55:28.335Z,37.35
2023-03-03T05:57:56.150Z,37.13
2023-03-03T06:00:23.454Z,36.83
2023-03-03T06:02:50.841Z,36.97
2023-03-03T06:05:18.559Z,35.83
2023-03-03T06:07:46.242Z,36.70
2023-03-03T06:10:13.582Z,36.05
2023-03-03T06:12:42.692Z,36.77
2023-03-03T06:15:10.792Z,37.25
2023-03-03T06:17:38.565Z,37.30
2023-03-03T06:20:06.862Z,37.97
2023-03-03T06:22:34.263Z,37.75
2023-03-03T06:25:01.579Z,38.92
2023-03-03T06:27:29.079Z,38.92
2023-03-03T06:29:56.412Z,37.22
2023-03-03T06:32:23.716Z,38.67
2023-03-03T06:34:51.090Z,38.95
2023-03-03T06:37:18.399Z,37.97
2023-03-03T06:39:45.917Z,39.58
2023-03-03T06:42:13.420Z,39.85
2023-03-03T06:44:40.696Z,39.80
2023-03-03T06:47:08.123Z,38.88
2023-03-03T06:49:35.674Z,38.72
2023-03-03T06:52:11.962Z,40.33
2023-03-03T06:54:39.464Z,38.65
2023-03-03T06:57:17.794Z,39.78
2023-03-03T06:59:45.468Z,41.08
2023-03-03T07:02:17.170Z,38.90
2023-03-03T07:04:47.024Z,39.75
2023-03-03T07:07:23.179Z,40.53
2023-03-03T07:09:53.638Z,44.08
2023-03-03T07:12:23.807Z,43.63
2023-03-03T07:14:56.405Z,48.15
2023-03-03T07:17:25.448Z,46.65
2023-03-03T07:19:52.797Z,45.70
2023-03-03T07:22:22.107Z,47.45
2023-03-03T07:24:53.165Z,45.08
2023-03-03T07:27:27.083Z,48.08
2023-03-03T07:29:56.423Z,39.92
2023-03-03T07:32:38.408Z,52.63
2023-03-03T07:35:39.009Z,50.58
2023-03-03T07:38:26.533Z,48.30
2023-03-03T07:40:56.131Z,58.88
2023-03-03T07:43:37.570Z,57.72
2023-03-03T07:46:11.522Z,52.90
2023-03-03T07:48:41.949Z,52.67
2023-03-03T07:51:41.888Z,54.22
2023-03-03T07:57:31.589Z,51.58
2023-03-03T08:00:28.669Z,50.50
2023-03-03T08:03:12.913Z,54.22
2023-03-03T08:05:45.270Z,58.78
2023-03-03T08:08:16.284Z,55.15
2023-03-03T08:10:54.389Z,58.40
2023-03-03T08:13:29.170Z,59.50
2023-03-03T08:16:16.904Z,59.17
2023-03-03T08:18:47.691Z,57.20
2023-03-03T08:21:15.821Z,57.63
2023-03-03T08:23:43.413Z,62.35
2023-03-03T08:26:12.701Z,62.60
2023-03-03T08:28:40.034Z,61.58
2023-03-03T08:31:20.053Z,60.53
2023-03-03T08:33:53.317Z,60.70
2023-03-03T08:36:20.811Z,59.63
2023-03-03T08:38:48.315Z,59.42
2023-03-03T08:41:15.747Z,60.97
2023-03-03T08:43:45.421Z,59.42
2023-03-03T08:46:12.870Z,63.08
2023-03-03T08:48:40.169Z,61.80
2023-03-03T08:51:07.842Z,60.08
2023-03-03T08:53:36.660Z,59.78
2023-03-03T08:56:05.253Z,55.80
2023-03-03T08:58:35.479Z,60.55
2023-03-03T09:01:04.354Z,56.92
2023-03-03T09:03:31.774Z,60.05
2023-03-03T09:05:59.321Z,56.80
2023-03-03T09:08:26.584Z,57.65
2023-03-03T09:10:53.978Z,56.50
2023-03-03T09:13:21.683Z,55.38
2023-03-03T09:15:49.349Z,53.80
2023-03-03T09:18:36.094Z,55.28
2023-03-03T09:21:18.178Z,53.55
2023-03-03T09:24:05.716Z,53.65
2023-03-03T09:26:48.841Z,53.80
2023-03-03T09:29:17.820Z,51.30
2023-03-03T09:31:59.317Z,53.80
2023-03-03T09:34:36.046Z,52.75
2023-03-03T09:37:40.584Z,51.22
2023-03-03T09:40:37.158Z,50.65
2023-03-03T09:43:24.431Z,52.78
2023-03-03T09:46:15.893Z,50.35
2023-03-03T09:49:01.235Z,49.97
2023-03-03T09:51:42.926Z,50.47
2023-03-03T09:54:24.219Z,51.10
2023-03-03T09:57:17.802Z,48.10
2023-03-03T09:59:57.803Z,46.67
2023-03-03T10:05:17.455Z,46.28
2023-03-03T10:08:19.020Z,47.20
2023-03-03T10:10:55.652Z,45.63
2023-03-03T10:13:35.448Z,45.88
2023-03-03T10:16:23.273Z,44.63
2023-03-03T10:19:29.098Z,42.58
2023-03-03T10:22:43.180Z,40.88
2023-03-03T10:25:22.057Z,38.53
2023-03-03T10:27:52.660Z,40.22
2023-03-03T10:30:42.617Z,39.92
2023-03-03T10:33:36.435Z,39.63
2023-03-03T10:36:30.656Z,38.50
2023-03-03T10:39:10.727Z,39.08
2023-03-03T10:42:11.526Z,38.17
2023-03-03T10:44:54.068Z,37.58
2023-03-03T10:47:34.069Z,39.63
2023-03-03T10:52:47.659Z,36.72
2023-03-03T10:55:57.746Z,37.25
2023-03-03T10:58:39.752Z,38.33
2023-03-03T11:01:27.348Z,36.90
2023-03-03T11:04:12.926Z,36.67
2023-03-03T11:06:47.726Z,37.17
2023-03-03T11:09:17.797Z,37.72
2023-03-03T11:11:55.803Z,36.72
2023-03-03T11:14:47.496Z,36.05
2023-03-03T11:17:36.164Z,37.40
2023-03-03T11:20:13.287Z,35.95
2023-03-03T11:22:56.865Z,36.70
2023-03-03T11:25:35.477Z,34.97
2023-03-03T11:28:11.148Z,36.58
2023-03-03T11:30:59.988Z,36.20
2023-03-03T11:33:54.175Z,35.63
2023-03-03T11:36:34.852Z,36.50
2023-03-03T11:39:10.003Z,34.33
2023-03-03T11:42:08.554Z,34.78
2023-03-03T11:44:39.583Z,35.08
2023-03-03T11:47:31.583Z,33.20
2023-03-03T11:50:17.816Z,31.95
2023-03-03T11:53:25.037Z,33.75
2023-03-03T11:56:17.358Z,31.48
2023-03-03T11:58:54.969Z,32.72
2023-03-03T12:01:43.296Z,33.28
2023-03-03T12:04:22.388Z,33.58
2023-03-03T12:06:58.653Z,31.48
2023-03-03T12:09:32.175Z,31.73
2023-03-03T12:12:11.040Z,30.20
2023-03-03T12:15:08.816Z,31.38
2023-03-03T12:17:39.315Z,29.65
2023-03-03T12:20:13.988Z,28.77
2023-03-03T12:23:04.470Z,29.40
2023-03-03T12:25:41.739Z,29.30
2023-03-03T12:28:41.218Z,27.75
2023-03-03T12:31:49.128Z,27.75
2023-03-03T12:34:54.821Z,27.20
2023-03-03T12:37:42.544Z,28.67
2023-03-03T12:40:21.106Z,28.65
2023-03-03T12:43:23.457Z,26.75
2023-03-03T12:46:00.596Z,27.00
2023-03-03T12:48:47.098Z,27.33
2023-03-03T12:51:45.714Z,25.48
2023-03-03T12:54:25.853Z,25.42
2023-03-03T12:56:55.766Z,24.13
2023-03-03T12:59:36.600Z,23.05
2023-03-03T13:02:25.441Z,23.55
2023-03-03T13:05:05.334Z,23.80
2023-03-03T13:08:08.566Z,23.35
2023-03-03T13:11:00.596Z,22.15
2023-03-03T13:13:44.499Z,21.02
2023-03-03T13:16:17.143Z,21.25
2023-03-03T13:19:08.392Z,20.85
2023-03-03T13:21:48.936Z,21.30
2023-03-03T13:24:28.598Z,20.17
2023-03-03T13:27:06.233Z,20.25
2023-03-03T13:29:37.961Z,19.05
2023-03-03T13:32:05.487Z,21.50
2023-03-03T13:34:50.763Z,19.65
2023-03-03T13:37:22.008Z,21.17
2023-03-03T13:40:12.547Z,19.90
2023-03-03T13:43:05.378Z,18.95
2023-03-03T13:45:39.164Z,20.52
2023-03-03T13:48:31.625Z,19.48
2023-03-03T13:51:27.172Z,21.58
2023-03-03T13:54:15.781Z,17.90
2023-03-03T13:57:11.962Z,19.58
2023-03-03T13:59:58.632Z,19.13
2023-03-03T14:02:53.903Z,20.02
2023-03-03T14:05:46.506Z,18.95
2023-03-03T14:08:51.836Z,18.83
2023-03-03T14:11:56.472Z,19.08
2023-03-03T14:15:07.020Z,18.20
2023-03-03T14:17:41.083Z,19.35
2023-03-03T14:20:25.189Z,18.55
2023-03-03T14:22:55.548Z,17.95
2023-03-03T14:25:23.595Z,17.25
2023-03-03T14:28:02.607Z,17.95
2023-03-03T14:30:39.861Z,16.73
2023-03-03T14:33:31.653Z,18.50
2023-03-03T14:35:59.487Z,17.83
2023-03-03T14:38:32.671Z,18.67
2023-03-03T14:41:12.099Z,17.73
2023-03-03T14:43:40.477Z,18.00
2023-03-03T14:46:26.770Z,17.13
2023-03-03T14:48:56.373Z,16.02
2023-03-03T14:51:24.625Z,16.45
2023-03-03T14:53:52.418Z,18.15
2023-03-03T14:56:36.215Z,17.65
2023-03-03T14:59:12.410Z,17.25
2023-03-03T15:01:39.979Z,18.33
2023-03-03T15:04:16.618Z,18.70
2023-03-03T15:06:45.106Z,17.38
2023-03-03T15:09:50.474Z,17.75
2023-03-03T15:12:26.661Z,17.25
2023-03-03T15:15:02.966Z,18.20
2023-03-03T15:17:41.566Z,17.25
2023-03-03T15:20:10.525Z,15.85
2023-03-03T15:22:48.709Z,15.50
2023-03-03T15:25:41.987Z,15.77
2023-03-03T15:28:44.795Z,16.20
2023-03-03T15:31:41.183Z,14.52
2023-03-03T15:34:24.000Z,14.63
2023-03-03T15:36:57.368Z,14.77
2023-03-03T15:40:04.125Z,15.00
2023-03-03T15:42:39.374Z,15.40
2023-03-03T15:45:17.015Z,16.13
2023-03-03T15:47:56.561Z,16.08
2023-03-03T15:50:53.360Z,16.95
2023-03-03T15:53:46.059Z,18.00
2023-03-03T15:56:30.950Z,19.05
2023-03-03T15:59:02.428Z,19.02
2023-03-03T16:01:36.236Z,19.50
2023-03-03T16:04:13.728Z,18.50
2023-03-03T16:07:06.138Z,19.42
2023-03-03T16:09:57.976Z,22.00
2023-03-03T16:12:35.024Z,21.42
2023-03-03T16:15:25.102Z,21.77
2023-03-03T16:18:10.889Z,22.65
2023-03-03T16:20:57.222Z,23.38
2023-03-03T16:23:27.829Z,25.05
2023-03-03T16:26:05.286Z,24.00
2023-03-03T16:29:00.919Z,23.35
2023-03-03T16:31:38.233Z,22.05
2023-03-03T16:34:15.054Z,24.10
2023-03-03T16:36:54.886Z,23.33
2023-03-03T16:39:40.736Z,25.45
2023-03-03T16:42:18.322Z,24.83
2023-03-03T16:44:58.867Z,24.75
2023-03-03T16:47:38.252Z,24.83
2023-03-03T16:50:50.530Z,25.75
2023-03-03T16:53:33.359Z,25.13
2023-03-03T16:56:23.593Z,25.58
2023-03-03T17:04:28.763Z,23.45
2023-03-03T17:07:03.569Z,24.10
2023-03-03T17:09:34.175Z,23.20
2023-03-03T17:12:23.335Z,23.90
2023-03-03T17:15:06.422Z,26.17
2023-03-03T17:17:36.891Z,22.73
2023-03-03T17:20:15.711Z,29.52
2023-03-03T17:23:09.621Z,23.10
2023-03-03T17:26:13.577Z,24.20
2023-03-03T17:28:46.912Z,23.48
2023-03-03T17:31:26.783Z,23.85
2023-03-03T17:34:16.200Z,25.10
2023-03-03T17:36:57.680Z,25.27
2023-03-03T17:39:46.506Z,23.80
2023-03-03T17:42:22.276Z,24.02
2023-03-03T17:45:03.063Z,24.10
2023-03-03T17:47:58.195Z,22.38
2023-03-03T17:50:53.833Z,22.60
2023-03-03T17:53:37.996Z,22.48
2023-03-03T17:56:59.692Z,21.60
2023-03-03T17:59:42.536Z,22.77
2023-03-03T18:02:37.565Z,22.98
2023-03-03T18:05:25.448Z,21.98
2023-03-03T18:08:24.986Z,22.90
2023-03-03T18:10:58.272Z,22.17
2023-03-03T18:13:44.298Z,20.90
2023-03-03T18:16:41.923Z,21.83
2023-03-03T18:19:18.418Z,21.67
2023-03-03T18:21:48.746Z,21.75
2023-03-03T18:24:16.170Z,22.77
2023-03-03T18:26:43.913Z,21.85
2023-03-03T18:29:20.546Z,21.02
2023-03-03T18:31:48.031Z,21.30
2023-03-03T18:34:21.501Z,21.20
2023-03-03T18:37:11.059Z,22.30
2023-03-03T18:40:10.597Z,21.80
2023-03-03T18:42:40.874Z,20.85
2023-03-03T18:45:20.477Z,21.90
2023-03-03T18:47:59.798Z,21.42
2023-03-03T18:50:34.965Z,22.30
2023-03-03T18:53:18.022Z,21.52
2023-03-03T18:55:47.319Z,21.83
2023-03-03T18:58:14.499Z,22.00
2023-03-03T19:01:00.142Z,22.30
2023-03-03T19:03:36.406Z,22.27
2023-03-03T19:06:08.558Z,22.10
2023-03-03T19:08:45.101Z,24.08
2023-03-03T19:11:40.749Z,22.13
2023-03-03T19:14:17.425Z,23.17
2023-03-03T19:16:45.545Z,23.23
2023-03-03T19:19:23.751Z,23.15
2023-03-03T19:22:01.570Z,22.27
2023-03-03T19:24:33.804Z,22.52
2023-03-03T19:27:31.218Z,23.63
2023-03-03T19:30:04.891Z,23.55
2023-03-03T19:33:10.532Z,21.73
2023-03-03T19:35:52.188Z,21.20
2023-03-03T19:38:46.059Z,21.75
2023-03-03T19:41:29.184Z,22.17
2023-03-03T19:44:00.162Z,22.42
2023-03-03T19:46:36.504Z,21.58
2023-03-03T19:49:35.641Z,22.85
2023-03-03T19:52:08.818Z,22.52
2023-03-03T19:54:57.343Z,23.40
2023-03-03T19:57:35.090Z,24.27
2023-03-03T20:00:34.578Z,23.83
2023-03-03T20:03:29.448Z,22.40
2023-03-03T20:06:20.825Z,23.08
2023-03-03T20:09:23.479Z,22.40
2023-03-03T20:11:53.722Z,23.30
2023-03-03T20:14:33.618Z,24.42
2023-03-03T20:17:30.711Z,22.30
2023-03-03T20:20:15.615Z,23.88
2023-03-03T20:23:07.206Z,23.48
2023-03-03T20:25:44.991Z,22.25
2023-03-03T20:28:38.259Z,22.67
2023-03-03T20:31:06.967Z,23.95
2023-03-03T20:33:52.734Z,23.60
2023-03-03T20:36:28.737Z,24.30
2023-03-03T20:39:02.089Z,24.67
2023-03-03T20:41:58.769Z,23.27
2023-03-03T20:44:41.454Z,24.52
2023-03-03T20:47:30.857Z,24.10
2023-03-03T20:50:15.368Z,24.05
2023-03-03T20:52:49.233Z,24.35
2023-03-03T20:55:24.739Z,24.05
2023-03-03T20:57:58.048Z,23.92
2023-03-03T21:00:46.311Z,24.77
2023-03-03T21:03:19.861Z,26.38
2023-03-03T21:06:09.550Z,26.27
2023-03-03T21:08:40.851Z,24.63
2023-03-03T21:11:08.601Z,25.35
2023-03-03T21:13:41.319Z,25.75
2023-03-03T21:16:39.059Z,27.27
2023-03-03T21:19:10.653Z,28.27
2023-03-03T21:21:43.109Z,26.00
2023-03-03T21:24:19.818Z,29.30
2023-03-03T21:26:55.625Z,36.33
2023-03-03T21:29:34.555Z,25.50
2023-03-03T21:32:09.742Z,26.55
2023-03-03T21:34:39.353Z,26.52
2023-03-03T21:37:12.651Z,26.08
2023-03-03T21:39:41.928Z,25.48
2023-03-03T21:42:13.343Z,25.67
2023-03-03T21:44:46.681Z,25.35
2023-03-03T21:47:19.119Z,27.13
2023-03-03T21:49:49.221Z,26.40
2023-03-03T21:52:18.643Z,26.70
2023-03-03T21:54:47.308Z,27.40
2023-03-03T21:57:15.486Z,25.70
2023-03-03T21:59:43.108Z,27.98
2023-03-03T22:02:10.666Z,26.52
2023-03-03T22:04:41.118Z,27.80
2023-03-03T22:07:09.005Z,28.02
2023-03-03T22:09:37.192Z,27.15
2023-03-03T22:12:05.935Z,27.33
2023-03-03T22:14:33.438Z,27.20
2023-03-03T22:17:00.928Z,27.70
2023-03-03T22:19:28.282Z,26.65
2023-03-03T22:21:55.752Z,27.35
2023-03-03T22:24:23.049Z,27.67
2023-03-03T22:26:50.319Z,27.77
2023-03-03T22:29:22.853Z,28.67
2023-03-03T22:31:51.168Z,27.95
2023-03-03T22:34:18.770Z,29.23
2023-03-03T22:36:46.591Z,28.58
2023-03-03T22:39:14.070Z,27.58
2023-03-03T22:41:41.423Z,27.20
2023-03-03T22:44:08.708Z,29.85
2023-03-03T22:46:36.061Z,27.98
2023-03-03T22:49:03.461Z,29.00
2023-03-03T22:51:30.897Z,30.17
2023-03-03T22:53:58.263Z,29.17
2023-03-03T22:56:25.834Z,29.38
2023-03-03T22:58:53.605Z,29.73
2023-03-03T23:01:21.169Z,29.65
2023-03-03T23:03:50.198Z,29.45
2023-03-03T23:06:17.608Z,31.15
2023-03-03T23:08:44.961Z,29.27
2023-03-03T23:11:12.518Z,28.90
2023-03-03T23:13:39.881Z,29.10
2023-03-03T23:16:07.505Z,29.17
2023-03-03T23:18:34.957Z,29.20
2023-03-03T23:21:02.486Z,29.67
2023-03-03T23:23:30.687Z,30.55
2023-03-03T23:25:58.051Z,29.88
2023-03-03T23:28:25.343Z,28.95
2023-03-03T23:30:52.745Z,30.38
2023-03-03T23:33:20.466Z,29.73
2023-03-03T23:35:49.830Z,30.77
2023-03-03T23:38:17.837Z,30.95
2023-03-03T23:40:46.855Z,30.48
2023-03-03T23:43:14.969Z,30.80
2023-03-03T23:45:42.248Z,31.95
2023-03-03T23:48:10.216Z,31.40
2023-03-03T23:50:38.180Z,31.02
2023-03-03T23:53:06.641Z,29.83
2023-03-03T23:55:34.851Z,31.02
2023-03-03T23:58:02.173Z,31.77
